Country
Station

 

Weather  for  Atlanta, Hartsfield Atlanta International Airport  -  United States    United States

  
23 °C (73 °F)
    
 
 

Current METAR for Atlanta, Hartsfield Atlanta International Airport is :

KATL 171052Z 00000KT 6SM BR OVC004 23/22 A3005 RMK AO2 SLP164 CIG 003V005 T02330222

 

This is a report for Atlanta, Hartsfield Atlanta International Airport - United States.
 
The report was made 17 minutes ago, at 10:52 UTC .
The wind was calm.
 
The temperature was 23 °C (73 °F), with a dew-point at 22 °C (72 °F).
The temperature felt like 21 °C (69 °F).
 
The atmospheric pressure was 1018 hPa (30.05 inHg).
The relative humidity was 94.1%.
 
The sky was overcast from a height of 122 meter (400 feet)
 
The overall visibility was 9.7 kilometers (6.0 miles).
 
Currently mist.

 
 
 
 

Country :   A   B   C   D   E   F   G   H   I   J   K   L   M   N   O   P   Q   R   S   T   U   V   W   Y   Z

 

Site Info  |  Disclaimer  |  Credits  |  Privacy
Contact us  |  Add to favorites
© 2013-2018 METARs - All rights reserved